Time;durP1;ratioP1;P1;durP2;ratioP2;P2;SDS_P1;SDS_P2;PMS_P1;PMS_P2;Temp;Humidity;BMP_temperature;BMP_pressure;BME280_temperature;BME280_humidity;BME280_pressure;Samples;Min_cycle;Max_cycle;Signal;HPM_P1;HPM_P2
2022/01/08 00:07:45;;;;;;;3.95;0.50;;;2.20;99.90;;;;;;6701975;88;20191;-76
2022/01/08 00:17:45;;;;;;;5.15;0.60;;;2.20;99.90;;;;;;6704054;88;20215;-76
2022/01/08 00:27:46;;;;;;;2.50;0.50;;;2.10;99.90;;;;;;6705364;88;20362;-76
2022/01/08 00:37:47;;;;;;;3.62;0.60;;;2.10;99.90;;;;;;6704670;88;20206;-76
2022/01/08 00:47:48;;;;;;;1.33;0.40;;;2.30;99.90;;;;;;6708648;88;20750;-76
2022/01/08 00:57:48;;;;;;;3.35;0.82;;;2.30;99.90;;;;;;6703372;88;20568;-76
2022/01/08 01:07:49;;;;;;;1.80;0.50;;;2.20;99.90;;;;;;6705138;88;20682;-76
2022/01/08 01:17:49;;;;;;;5.32;0.85;;;2.30;99.90;;;;;;6709085;88;20608;-76
2022/01/08 01:48:13;;;;;;;3.67;0.80;;;2.30;99.90;;;;;;6700596;88;20199;-74
2022/01/08 01:58:14;;;;;;;2.55;0.60;;;2.30;99.90;;;;;;6703466;88;20210;-75
2022/01/08 02:08:15;;;;;;;2.55;0.60;;;2.30;99.90;;;;;;6704686;88;20312;-74
2022/01/08 02:18:16;;;;;;;3.83;0.70;;;2.30;99.90;;;;;;6704833;88;20235;-77
2022/01/08 02:28:17;;;;;;;1.98;0.57;;;2.40;99.90;;;;;;6720162;88;20633;-76
2022/01/08 02:38:18;;;;;;;2.90;0.60;;;2.60;99.90;;;;;;6706017;88;20366;-76
2022/01/08 02:48:18;;;;;;;2.15;1.05;;;2.50;99.90;;;;;;6709427;88;20195;-76
2022/01/08 02:58:19;;;;;;;2.78;0.93;;;2.20;99.90;;;;;;6703090;88;20187;-76
2022/01/08 03:08:20;;;;;;;2.93;1.10;;;2.20;99.90;;;;;;6693227;88;20252;-76
2022/01/08 03:18:21;;;;;;;4.68;1.40;;;2.20;99.90;;;;;;6696926;88;20548;-76
2022/01/08 03:28:21;;;;;;;7.70;1.80;;;2.40;99.90;;;;;;6703464;88;20186;-76
2022/01/08 03:38:22;;;;;;;6.45;2.20;;;2.30;99.90;;;;;;6702977;88;20191;-76
2022/01/08 03:48:33;;;;;;;8.98;2.47;;;2.30;99.90;;;;;;6696865;88;20491;-76
2022/01/08 03:58:34;;;;;;;7.60;2.90;;;2.10;99.90;;;;;;6699966;88;20190;-76
2022/01/08 04:08:34;;;;;;;10.35;4.18;;;2.20;99.90;;;;;;6710657;88;20250;-75
2022/01/08 04:18:35;;;;;;;10.77;4.80;;;2.20;99.90;;;;;;6701047;88;20236;-76
2022/01/08 04:28:36;;;;;;;14.45;5.60;;;2.00;99.90;;;;;;6702408;88;21146;-76
2022/01/08 04:38:36;;;;;;;13.27;6.30;;;1.90;99.90;;;;;;6707889;88;20329;-76
2022/01/08 04:48:37;;;;;;;17.37;6.95;;;1.80;99.90;;;;;;6704364;88;20197;-76
2022/01/08 04:58:38;;;;;;;15.80;6.97;;;1.50;99.90;;;;;;6703771;88;20202;-76
2022/01/08 05:08:39;;;;;;;16.92;7.00;;;1.50;99.90;;;;;;6704593;88;20205;-76
2022/01/08 05:18:39;;;;;;;17.12;7.43;;;1.50;99.90;;;;;;6701617;88;20265;-76
2022/01/08 05:39:42;;;;;;;23.50;9.30;;;1.40;99.90;;;;;;6758100;88;20511;-79
2022/01/08 05:49:42;;;;;;;27.58;10.75;;;1.40;99.90;;;;;;6751366;88;20679;-80
2022/01/08 05:59:43;;;;;;;21.98;10.13;;;1.50;99.90;;;;;;6757286;88;20188;-79
2022/01/08 06:09:43;;;;;;;21.83;9.30;;;1.50;99.90;;;;;;6750762;88;20200;-80
2022/01/08 06:19:44;;;;;;;21.33;9.70;;;1.50;99.90;;;;;;6755674;88;20185;-79
2022/01/08 06:29:45;;;;;;;22.62;8.77;;;1.50;99.90;;;;;;6749413;88;20614;-79
2022/01/08 06:39:45;;;;;;;21.62;9.88;;;1.50;99.90;;;;;;6709782;88;20178;-78
2022/01/08 06:49:46;;;;;;;14.10;6.45;;;1.40;99.90;;;;;;6701917;88;20218;-82
2022/01/08 06:59:46;;;;;;;20.92;7.95;;;1.50;99.90;;;;;;6713308;88;20275;-79
2022/01/08 07:09:47;;;;;;;15.57;6.90;;;1.40;99.90;;;;;;6738610;88;20228;-79
2022/01/08 07:19:47;;;;;;;16.62;6.87;;;1.50;99.90;;;;;;6742104;88;20219;-79
2022/01/08 07:29:48;;;;;;;15.10;6.45;;;1.50;99.90;;;;;;6755971;88;20217;-78
2022/01/08 07:39:49;;;;;;;13.48;6.15;;;1.60;99.90;;;;;;6750133;88;20178;-79
2022/01/08 07:49:49;;;;;;;9.95;4.45;;;1.50;99.90;;;;;;6756393;88;20279;-79
2022/01/08 07:59:50;;;;;;;11.80;4.37;;;1.60;99.90;;;;;;6756011;88;20247;-79
2022/01/08 08:09:50;;;;;;;10.18;3.75;;;1.70;99.90;;;;;;6751957;88;20208;-79
2022/01/08 08:19:51;;;;;;;10.57;3.65;;;1.90;99.90;;;;;;6751187;88;20268;-78
2022/01/08 08:29:52;;;;;;;7.62;2.97;;;2.00;99.90;;;;;;6731702;88;20193;-78
2022/01/08 08:39:52;;;;;;;9.15;3.22;;;2.10;99.90;;;;;;6750521;88;20185;-78
2022/01/08 08:49:53;;;;;;;8.90;3.00;;;2.40;99.90;;;;;;6750376;88;20514;-78
2022/01/08 08:59:55;;;;;;;7.35;2.45;;;2.70;99.90;;;;;;6736556;88;20184;-76
2022/01/08 09:09:55;;;;;;;6.18;2.37;;;3.00;99.90;;;;;;6749729;88;20219;-79
2022/01/08 09:19:56;;;;;;;4.70;1.70;;;3.30;99.90;;;;;;6744839;88;20217;-78
2022/01/08 09:29:57;;;;;;;8.68;2.00;;;3.50;99.90;;;;;;6739721;88;20217;-79
2022/01/08 09:39:57;;;;;;;5.55;2.03;;;3.40;99.90;;;;;;6734916;88;20319;-78
2022/01/08 09:49:58;;;;;;;7.35;2.40;;;3.50;99.90;;;;;;6742428;88;20216;-78
2022/01/08 09:59:58;;;;;;;10.23;2.85;;;3.70;99.90;;;;;;6746706;88;20209;-77
2022/01/08 10:10:13;;;;;;;7.27;2.50;;;3.80;99.90;;;;;;6742261;88;20289;-78
2022/01/08 10:20:33;;;;;;;8.38;2.50;;;3.80;99.90;;;;;;6749696;88;20495;-78
2022/01/08 10:30:34;;;;;;;6.37;2.22;;;3.70;99.90;;;;;;6744069;88;20189;-77
2022/01/08 10:40:35;;;;;;;8.95;2.53;;;3.70;99.90;;;;;;6747742;88;20224;-79
2022/01/08 10:50:35;;;;;;;6.45;2.70;;;3.60;99.90;;;;;;6753288;88;20226;-79
2022/01/08 11:00:36;;;;;;;5.60;1.70;;;3.60;99.90;;;;;;6737139;88;20237;-79
2022/01/08 11:10:38;;;;;;;6.28;2.37;;;3.80;99.90;;;;;;6738251;88;20508;-79
2022/01/08 11:20:39;;;;;;;4.43;2.05;;;3.80;99.90;;;;;;6746596;88;20176;-78
2022/01/08 11:30:51;;;;;;;4.78;1.98;;;3.80;99.90;;;;;;6748010;88;20185;-77
2022/01/08 11:40:53;;;;;;;6.40;2.17;;;4.10;99.90;;;;;;6736083;88;20215;-78
2022/01/08 11:50:57;;;;;;;5.30;1.67;;;4.00;99.90;;;;;;6742650;88;20214;-76
2022/01/08 12:01:04;;;;;;;6.95;1.60;;;4.10;99.90;;;;;;6750575;88;20213;-78
2022/01/08 12:11:07;;;;;;;6.80;1.98;;;3.90;99.90;;;;;;6748090;88;20212;-77
2022/01/08 12:21:31;;;;;;;2.92;1.20;;;3.80;99.90;;;;;;6746781;88;20272;-79
2022/01/08 12:31:47;;;;;;;2.87;1.30;;;3.80;99.90;;;;;;6742234;88;20710;-77
2022/01/08 12:41:48;;;;;;;5.60;1.80;;;3.90;99.90;;;;;;6734297;77;20201;-75
2022/01/08 12:51:48;;;;;;;3.93;1.83;;;4.00;99.90;;;;;;6724672;88;20645;-74
2022/01/08 13:01:50;;;;;;;5.72;1.83;;;4.10;99.90;;;;;;6716382;88;20491;-75
2022/01/08 13:11:51;;;;;;;4.82;2.05;;;4.10;99.90;;;;;;6719747;88;20198;-76
2022/01/08 13:21:54;;;;;;;4.22;1.30;;;4.00;99.90;;;;;;6721875;88;20698;-75
2022/01/08 13:31:57;;;;;;;5.32;2.03;;;4.10;99.90;;;;;;6724093;88;20884;-74
2022/01/08 13:42:08;;;;;;;4.95;1.70;;;4.20;99.90;;;;;;6718769;88;20216;-75
2022/01/08 13:52:15;;;;;;;2.12;0.98;;;4.00;99.90;;;;;;6714845;88;20182;-75
2022/01/08 14:02:16;;;;;;;3.33;1.17;;;3.90;99.90;;;;;;6719025;88;20214;-74
2022/01/08 14:12:17;;;;;;;2.72;1.20;;;3.70;99.90;;;;;;6721720;88;20963;-74
2022/01/08 14:22:23;;;;;;;3.75;1.30;;;3.20;99.90;;;;;;6716621;88;20322;-76
2022/01/08 14:32:28;;;;;;;6.25;2.50;;;2.70;99.90;;;;;;6727889;88;20317;-74
2022/01/08 14:42:29;;;;;;;8.27;3.83;;;2.20;99.90;;;;;;6731796;88;20194;-76
2022/01/08 14:52:29;;;;;;;7.85;3.00;;;2.20;99.90;;;;;;6737033;88;20182;-76
2022/01/08 15:02:33;;;;;;;4.75;2.67;;;2.10;99.90;;;;;;6732552;88;20180;-75
2022/01/08 15:12:34;;;;;;;6.00;2.87;;;2.10;99.90;;;;;;6723365;88;20841;-75
2022/01/08 15:22:35;;;;;;;3.97;2.40;;;2.30;99.90;;;;;;6715291;88;20669;-75
2022/01/08 15:32:37;;;;;;;4.20;2.30;;;2.40;99.90;;;;;;6720253;88;20337;-75
2022/01/08 15:42:39;;;;;;;7.62;3.05;;;2.50;99.90;;;;;;6716470;88;20269;-76
2022/01/08 15:52:39;;;;;;;4.85;2.15;;;2.40;99.90;;;;;;6720639;88;20190;-75
2022/01/08 16:02:40;;;;;;;6.57;2.60;;;2.40;99.90;;;;;;6713694;88;20241;-75
2022/01/08 16:12:41;;;;;;;2.58;1.62;;;2.50;99.90;;;;;;6723190;88;20766;-75
2022/01/08 16:22:42;;;;;;;4.93;1.62;;;2.50;99.90;;;;;;6722149;88;20193;-75
2022/01/08 16:32:42;;;;;;;5.72;1.95;;;2.60;99.90;;;;;;6719081;88;20181;-74
2022/01/08 16:42:43;;;;;;;5.80;1.58;;;2.60;99.90;;;;;;6721807;88;20516;-75
2022/01/08 16:52:43;;;;;;;4.32;1.87;;;2.60;99.90;;;;;;6717653;88;20280;-74
2022/01/08 17:02:44;;;;;;;6.68;2.65;;;2.70;99.90;;;;;;6720048;88;20225;-75
2022/01/08 17:12:44;;;;;;;4.72;2.58;;;2.60;99.90;;;;;;6724761;88;20299;-75
2022/01/08 17:22:45;;;;;;;6.25;2.60;;;2.70;99.90;;;;;;6718840;88;20631;-75
2022/01/08 17:32:46;;;;;;;2.62;1.42;;;2.80;99.90;;;;;;6722703;88;20210;-74
2022/01/08 17:42:46;;;;;;;5.55;2.80;;;2.80;99.90;;;;;;6718637;88;20347;-73
2022/01/08 17:52:47;;;;;;;5.32;3.00;;;2.90;99.90;;;;;;6704305;88;20175;-74
2022/01/08 18:02:48;;;;;;;5.47;3.15;;;2.90;99.90;;;;;;6706701;88;20308;-75
2022/01/08 18:12:49;;;;;;;4.55;2.30;;;2.90;99.90;;;;;;6717731;88;20685;-76
2022/01/08 18:22:51;;;;;;;5.28;2.42;;;3.00;99.90;;;;;;6714459;88;20187;-76
2022/01/08 18:32:53;;;;;;;3.65;2.10;;;3.10;99.90;;;;;;6710891;88;20244;-75
2022/01/08 18:42:56;;;;;;;3.85;2.42;;;3.20;99.90;;;;;;6721649;77;20242;-76
2022/01/08 18:52:56;;;;;;;4.43;1.98;;;3.30;99.90;;;;;;6725926;88;20182;-77
2022/01/08 19:02:58;;;;;;;2.40;1.40;;;3.40;99.90;;;;;;6733123;88;20259;-78
2022/01/08 19:12:59;;;;;;;4.70;1.87;;;3.40;99.90;;;;;;6730570;88;20761;-77
2022/01/08 19:22:59;;;;;;;2.65;1.30;;;3.40;99.90;;;;;;6730137;88;20208;-78
2022/01/08 19:33:00;;;;;;;3.65;1.80;;;3.40;99.90;;;;;;6730283;88;20224;-78
2022/01/08 19:43:02;;;;;;;2.33;1.00;;;3.40;99.90;;;;;;6743293;88;20518;-78
2022/01/08 19:53:02;;;;;;;3.10;1.23;;;3.40;99.90;;;;;;6732374;88;20679;-77
2022/01/08 20:03:03;;;;;;;2.35;1.12;;;3.50;99.90;;;;;;6735103;88;20243;-78
2022/01/08 20:13:05;;;;;;;2.00;1.02;;;3.50;99.90;;;;;;6731160;88;20568;-78
2022/01/08 20:23:06;;;;;;;2.33;1.20;;;3.60;99.90;;;;;;6725001;88;20182;-78
2022/01/08 20:33:06;;;;;;;2.83;1.10;;;3.60;99.90;;;;;;6727293;88;22520;-78
2022/01/08 20:43:07;;;;;;;2.10;1.20;;;3.80;99.90;;;;;;6739540;88;20204;-77
2022/01/08 20:53:09;;;;;;;1.00;0.70;;;3.80;99.90;;;;;;6731715;88;20214;-78
2022/01/08 21:03:09;;;;;;;1.90;0.80;;;3.80;99.90;;;;;;6739146;88;20205;-78
2022/01/08 21:13:10;;;;;;;1.35;0.73;;;3.90;99.90;;;;;;6738886;88;20215;-77
2022/01/08 21:23:11;;;;;;;1.65;0.70;;;3.90;99.90;;;;;;6738168;88;20208;-78
2022/01/08 21:33:12;;;;;;;2.05;0.70;;;3.90;99.90;;;;;;6728043;88;20449;-79
2022/01/08 21:43:13;;;;;;;0.88;0.45;;;3.90;99.90;;;;;;6727462;88;20321;-79
2022/01/08 21:53:14;;;;;;;1.65;0.60;;;4.00;99.90;;;;;;6733332;88;20232;-78
2022/01/08 22:03:15;;;;;;;1.27;0.62;;;4.00;99.90;;;;;;6726499;88;20361;-79
2022/01/08 22:13:15;;;;;;;1.65;0.80;;;4.00;99.90;;;;;;6729719;88;20189;-79
2022/01/08 22:23:16;;;;;;;1.37;0.60;;;4.00;99.90;;;;;;6741540;88;20198;-78
2022/01/08 22:33:17;;;;;;;1.00;0.40;;;4.00;99.90;;;;;;6724395;88;20659;-78
2022/01/08 22:43:18;;;;;;;2.15;0.50;;;4.00;99.90;;;;;;6738446;87;20218;-80
2022/01/08 22:53:18;;;;;;;2.05;0.40;;;4.10;99.90;;;;;;6737429;88;20675;-80
2022/01/08 23:03:23;;;;;;;0.67;0.30;;;4.10;99.90;;;;;;6747387;88;20228;-78
2022/01/08 23:13:27;;;;;;;1.73;0.60;;;4.20;99.90;;;;;;6735697;88;20579;-79
2022/01/08 23:23:27;;;;;;;0.37;0.20;;;4.30;99.90;;;;;;6737096;88;20622;-79
2022/01/08 23:33:28;;;;;;;1.15;0.40;;;4.40;99.90;;;;;;6743782;88;20186;-80
2022/01/08 23:43:28;;;;;;;0.47;0.20;;;4.40;99.90;;;;;;6729440;88;20532;-78
2022/01/08 23:53:29;;;;;;;0.80;0.30;;;4.40;99.90;;;;;;6728862;88;21062;-80
